KAWM/AWM METAR and TAF weather

Enter ICAO airport designator
Station Type Date Time Source
KAWM METAR 2019/12/13 21:53 UTC NOAA

KAWM 132153Z AUTO 00000KT 10SM OVC060 09/06 A2985 RMK AO2 SLP108 T00940061


Station Type Date Time Source
KAWM Decoded METAR 2019/12/13 21:53 UTC NOAA

WEST MEMPHIS MUNICIPAL AIRPORT, AR, United States (KAWM) 35-08N 090-14W
Dec 13, 2019 - 04:53 PM EST / 2019.12.13 2153 UTC
Wind: Calm:0
Visibility: 10 mile(s):0
Sky conditions: overcast
Temperature: 48.9 F (9.4 C)
Dew Point: 43.0 F (6.1 C)
Relative Humidity: 79%
Pressure (altimeter): 29.85 in. Hg (1010 hPa)
ob: KAWM 132153Z AUTO 00000KT 10SM OVC060 09/06 A2985 RMK AO2 SLP108 T00940061
cycle: 22

Station Type Date Time Source
KAWM TAF UTC NOAA

Error!

Example: see airport list